Hovedside
METAR-TAF:

METAR-TAF

Lufthavner :

Kristianstad, Sverige

breddegrad: 55-55N, lengdegrad: 014-05E, høyde over havet: 23 m

Gjeldene værobservasjon

Denne rapporten ble laget for 32 minutter siden, klokken 11:20 UTC
Vind 10 kt fra Vest, skiftende mellom Vest-sørvest og Nordvest
Temperatur 17°C
Luftfuktighet 59%
Trykk 1012 hPa
Sikt 10 km eller mer
Brutte skyer i en høyde av 3800 ft

METAR: ESMK 191120Z 28010KT 240V310 9999 BKN038 17/09 Q1012

Tid: 13:52 (11:52 UTC)

Varsel

Denne rapporten ble laget for 51 minutter siden, klokken 11:01 UTC
Varsel gyldig fra 19. klokken 12 UTC til 19. klokken 15 UTC
Vind 12 kt fra Vest-nordvest
Sikt 10 km eller mer
Brutte skyer i en høyde av 4000 ft

TAF: ESMK 191101Z 1912/1915 29012KT 9999 BKN040

Værobservasjoner og værvarsel for over 4000 flyplasser (METAR- og TAF-rapporter).

Tilgjengelige stasjoner er representert av de røde og gule prikkene på kartet.

Hold musepekeren over prikken for å se navnet på stasjonen.

Klikk så for å se værobservasjoner og -varsler.

For å forandre kartet kan du klikke på den grønne knappen med svart kryss for å zoome inn, på den grønne knappen med strek for å zoome ut, eller på de grønne pilene for å se tilstøtende kart.


METAR-TAF: